Time;durP1;ratioP1;P1;durP2;ratioP2;P2;SDS_P1;SDS_P2;PMS_P1;PMS_P2;Temp;Humidity;BMP_temperature;BMP_pressure;BME280_temperature;BME280_humidity;BME280_pressure;Samples;Min_cycle;Max_cycle;Signal;HPM_P1;HPM_P2
2023/06/21 00:00:12;;;;;;;13.25;8.98;;;;;;;16.46;94.58;94834.19;5110132;28;20246;-75
2023/06/21 00:02:40;;;;;;;13.73;7.82;;;;;;;16.54;94.61;94830.41;5097777;28;20620;-75
2023/06/21 00:05:08;;;;;;;14.75;7.82;;;;;;;16.62;94.47;94827.53;5112717;27;20202;-75
2023/06/21 00:07:35;;;;;;;14.70;7.78;;;;;;;16.68;94.00;94830.75;5105646;28;20198;-75
2023/06/21 00:10:02;;;;;;;12.15;7.82;;;;;;;16.47;94.59;94836.56;5110270;28;20208;-75
2023/06/21 00:12:30;;;;;;;16.88;8.75;;;;;;;16.44;95.89;94831.00;5110880;27;20228;-74
2023/06/21 00:14:57;;;;;;;12.02;8.25;;;;;;;16.34;96.64;94835.13;5114825;27;20217;-74
2023/06/21 00:17:25;;;;;;;13.45;8.40;;;;;;;16.39;96.72;94834.03;5123983;27;20254;-74
2023/06/21 00:19:55;;;;;;;12.68;8.73;;;;;;;16.25;97.28;94829.88;5126636;27;20251;-75
2023/06/21 00:22:22;;;;;;;14.00;8.85;;;;;;;16.31;97.01;94839.34;5121926;27;20757;-74
2023/06/21 00:24:48;;;;;;;13.25;9.20;;;;;;;16.32;96.71;94843.66;5110242;28;20280;-75
2023/06/21 00:27:15;;;;;;;13.40;8.25;;;;;;;16.34;96.66;94838.63;5110112;28;20198;-75
2023/06/21 00:29:42;;;;;;;10.85;7.53;;;;;;;16.35;95.71;94834.75;5112016;28;20711;-74
2023/06/21 00:32:09;;;;;;;12.13;7.75;;;;;;;16.34;95.62;94830.44;5104389;28;20225;-74
2023/06/21 00:34:37;;;;;;;14.40;8.27;;;;;;;16.31;96.14;94822.94;5119752;28;20189;-74
2023/06/21 00:37:04;;;;;;;12.68;7.72;;;;;;;16.23;96.14;94826.69;5128410;28;20204;-74
2023/06/21 00:39:31;;;;;;;15.85;8.82;;;;;;;16.15;96.70;94822.22;5113921;28;20190;-74
2023/06/21 00:41:58;;;;;;;13.20;9.05;;;;;;;16.08;97.37;94824.81;5109254;28;20761;-74
2023/06/21 00:44:25;;;;;;;12.27;8.60;;;;;;;16.08;97.42;94824.00;5122959;28;20194;-75
2023/06/21 00:46:52;;;;;;;14.43;8.27;;;;;;;16.04;97.92;94829.38;5111476;28;20246;-75
2023/06/21 00:49:18;;;;;;;15.57;8.40;;;;;;;16.04;98.13;94828.59;5118424;28;20279;-75
2023/06/21 00:51:48;;;;;;;15.00;8.85;;;;;;;16.06;98.15;94829.81;5124196;28;20201;-74
2023/06/21 00:54:17;;;;;;;12.98;9.05;;;;;;;16.14;97.96;94828.81;5096863;28;20642;-75
2023/06/21 00:56:44;;;;;;;14.10;8.40;;;;;;;16.17;97.30;94833.56;5106050;28;20229;-74
2023/06/21 00:59:11;;;;;;;15.80;8.93;;;;;;;16.16;97.21;94825.72;5116501;28;20579;-74
2023/06/21 01:01:38;;;;;;;13.60;8.80;;;;;;;16.15;96.77;94830.41;5109514;28;20197;-74
2023/06/21 01:04:07;;;;;;;17.15;8.90;;;;;;;16.18;96.38;94829.69;5112066;28;20287;-74
2023/06/21 01:06:40;;;;;;;10.77;8.20;;;;;;;16.11;96.51;94834.22;5115447;28;20216;-74
2023/06/21 01:09:25;;;;;;;13.55;8.50;;;;;;;16.11;96.29;94826.81;5094139;28;20202;-74
2023/06/21 01:11:55;;;;;;;19.17;8.40;;;;;;;15.97;97.58;94838.25;5119247;28;20221;-74
2023/06/21 01:14:32;;;;;;;11.98;7.63;;;;;;;16.03;97.88;94838.72;5108971;28;20496;-74
2023/06/21 01:17:01;;;;;;;12.32;8.20;;;;;;;16.03;97.83;94837.94;5108850;28;20205;-74
2023/06/21 01:19:40;;;;;;;14.55;8.48;;;;;;;15.90;98.44;94829.06;5109101;28;20280;-74
2023/06/21 01:22:18;;;;;;;12.80;8.77;;;;;;;16.00;98.64;94828.50;5108688;28;20186;-74
2023/06/21 01:24:58;;;;;;;15.88;9.23;;;;;;;15.95;98.74;94837.78;5109523;28;20189;-74
2023/06/21 01:27:37;;;;;;;12.38;9.02;;;;;;;15.91;99.42;94830.66;5109657;28;20260;-74
2023/06/21 01:30:09;;;;;;;10.80;7.63;;;;;;;15.93;99.09;94825.63;5111883;28;20245;-74
2023/06/21 01:32:39;;;;;;;14.95;8.55;;;;;;;15.92;99.26;94821.31;5117933;27;20206;-74
2023/06/21 01:35:08;;;;;;;12.50;9.30;;;;;;;15.93;99.50;94826.44;5128748;27;20208;-74
2023/06/21 01:37:34;;;;;;;12.60;9.07;;;;;;;15.97;99.16;94830.03;5131718;27;20189;-75
2023/06/21 01:40:09;;;;;;;12.38;8.20;;;;;;;15.88;99.19;94831.38;5111837;28;20204;-75
2023/06/21 01:42:36;;;;;;;12.68;7.72;;;;;;;15.86;98.92;94833.66;5112926;28;20274;-75
2023/06/21 01:45:03;;;;;;;13.32;8.23;;;;;;;15.79;98.95;94841.69;5113325;28;20202;-75
2023/06/21 01:47:31;;;;;;;13.02;8.52;;;;;;;15.58;99.34;94850.97;5112848;28;20730;-75
2023/06/21 01:49:58;;;;;;;13.73;8.32;;;;;;;15.62;98.89;94840.91;5112876;28;20205;-75
2023/06/21 01:52:25;;;;;;;13.38;8.73;;;;;;;15.61;99.00;94844.00;5112571;28;20202;-75
2023/06/21 01:54:52;;;;;;;12.93;8.38;;;;;;;15.65;99.20;94855.81;5112689;27;20720;-75
2023/06/21 01:57:21;;;;;;;12.93;9.00;;;;;;;15.69;99.89;94855.91;5112534;27;20652;-75
2023/06/21 01:59:49;;;;;;;11.15;7.68;;;;;;;15.75;99.64;94854.47;5119136;27;20217;-75
2023/06/21 02:02:19;;;;;;;13.15;9.00;;;;;;;15.69;99.70;94855.91;5129344;27;20254;-75
2023/06/21 02:04:47;;;;;;;14.55;9.00;;;;;;;15.64;99.86;94848.75;5121505;27;20198;-75
2023/06/21 02:07:15;;;;;;;10.63;8.07;;;;;;;15.68;99.80;94843.41;5112211;28;20750;-75
2023/06/21 02:09:43;;;;;;;11.30;8.43;;;;;;;15.58;99.81;94837.31;5112533;28;20208;-75
2023/06/21 02:12:10;;;;;;;10.05;7.75;;;;;;;15.58;99.66;94845.50;5126177;27;20206;-75
2023/06/21 02:14:38;;;;;;;11.18;7.93;;;;;;;15.54;99.15;94839.16;5112146;28;20728;-75
2023/06/21 02:17:05;;;;;;;11.43;8.15;;;;;;;15.55;99.65;94842.69;5112207;28;20744;-75
2023/06/21 02:19:32;;;;;;;11.70;7.63;;;;;;;15.48;100.00;94846.00;5111997;28;20679;-75
2023/06/21 02:22:02;;;;;;;16.30;8.88;;;;;;;15.48;100.00;94851.47;5116049;27;20222;-75
2023/06/21 02:24:29;;;;;;;12.57;8.88;;;;;;;15.49;100.00;94844.88;5119253;27;20211;-75
2023/06/21 02:26:56;;;;;;;13.57;8.65;;;;;;;15.46;100.00;94842.84;5128982;27;20212;-75
2023/06/21 02:29:22;;;;;;;13.57;8.85;;;;;;;15.49;100.00;94852.25;5119491;27;20676;-75
2023/06/21 02:31:49;;;;;;;12.65;8.30;;;;;;;15.48;100.00;94851.47;5120423;27;20245;-75
2023/06/21 02:34:16;;;;;;;14.93;8.70;;;;;;;15.49;100.00;94863.97;5120443;27;20664;-75
2023/06/21 02:36:42;;;;;;;15.00;8.45;;;;;;;15.45;100.00;94863.09;5130970;27;20655;-75
2023/06/21 02:39:11;;;;;;;12.68;8.98;;;;;;;15.47;100.00;94860.81;5118677;27;20198;-75
2023/06/21 02:41:38;;;;;;;11.88;7.75;;;;;;;15.40;100.00;94866.09;5108495;28;20229;-75
2023/06/21 02:44:05;;;;;;;11.73;8.20;;;;;;;15.40;100.00;94871.56;5111155;28;20186;-75
2023/06/21 02:46:31;;;;;;;12.98;8.80;;;;;;;15.43;100.00;94876.31;5119691;27;20208;-75
2023/06/21 02:48:58;;;;;;;14.32;9.00;;;;;;;15.38;100.00;94871.13;5131179;27;20192;-75
2023/06/21 02:51:25;;;;;;;12.20;8.20;;;;;;;15.34;100.00;94878.41;5117277;27;20265;-75
2023/06/21 02:53:52;;;;;;;13.30;8.63;;;;;;;15.22;100.00;94875.78;5111334;28;20258;-75
2023/06/21 02:56:20;;;;;;;14.18;8.25;;;;;;;15.22;100.00;94889.41;5111443;28;20636;-75
2023/06/21 02:58:47;;;;;;;16.98;9.40;;;;;;;15.17;100.00;94884.22;5112270;27;20271;-75
2023/06/21 03:01:15;;;;;;;14.40;9.25;;;;;;;15.19;100.00;94895.56;5112798;27;20922;-75
2023/06/21 03:03:44;;;;;;;14.57;8.77;;;;;;;15.36;100.00;94889.00;5113228;27;20388;-75
2023/06/21 03:06:11;;;;;;;13.10;9.05;;;;;;;15.76;100.00;94884.16;5111611;27;20206;-75
2023/06/21 03:08:38;;;;;;;13.23;8.98;;;;;;;16.30;99.26;94878.78;5112003;27;20200;-75
2023/06/21 03:11:08;;;;;;;14.35;9.43;;;;;;;16.72;96.93;94875.38;5112397;27;20197;-75
2023/06/21 03:13:36;;;;;;;15.30;8.77;;;;;;;17.27;94.30;94878.78;5112720;27;20243;-75
2023/06/21 03:16:03;;;;;;;14.23;8.88;;;;;;;17.87;91.33;94879.06;5113655;27;20198;-75
2023/06/21 03:18:30;;;;;;;12.10;8.35;;;;;;;18.51;88.17;94879.97;5124994;27;20198;-75
2023/06/21 03:21:00;;;;;;;13.40;8.65;;;;;;;19.06;83.99;94870.88;5118616;27;20679;-75
2023/06/21 03:23:27;;;;;;;13.88;8.82;;;;;;;19.38;82.30;94884.97;5108968;27;20252;-75
2023/06/21 03:25:54;;;;;;;14.50;11.27;;;;;;;19.93;79.27;94881.56;5102153;28;20205;-75
2023/06/21 03:28:21;;;;;;;12.60;8.90;;;;;;;20.37;77.78;94881.50;5111803;28;20202;-75
2023/06/21 03:30:49;;;;;;;10.75;9.13;;;;;;;20.93;75.17;94878.25;5121633;27;20720;-75
2023/06/21 03:33:16;;;;;;;13.20;8.32;;;;;;;20.78;74.07;94882.09;5117512;27;20225;-75
2023/06/21 03:35:43;;;;;;;11.48;7.80;;;;;;;21.45;71.28;94868.59;5113075;27;20190;-76
2023/06/21 03:38:10;;;;;;;13.95;8.30;;;;;;;21.87;70.37;94867.84;5124947;27;20205;-75
2023/06/21 03:40:36;;;;;;;13.15;10.25;;;;;;;22.50;68.25;94862.69;5108318;27;20194;-76
2023/06/21 03:43:03;;;;;;;13.77;10.25;;;;;;;22.68;67.59;94869.75;5118203;27;20609;-76
2023/06/21 03:45:30;;;;;;;15.50;10.30;;;;;;;23.20;65.49;94861.66;5103061;28;20247;-77
2023/06/21 03:47:59;;;;;;;11.05;9.90;;;;;;;23.76;63.32;94870.84;5112085;27;20909;-76
2023/06/21 03:50:26;;;;;;;17.52;9.20;;;;;;;24.34;61.95;94866.41;5113688;27;20186;-75
2023/06/21 03:52:52;;;;;;;11.80;8.38;;;;;;;24.39;61.59;94868.75;5102843;28;20198;-75
2023/06/21 03:55:19;;;;;;;14.45;9.25;;;;;;;24.34;61.61;94874.72;5109670;28;20259;-76
2023/06/21 03:57:46;;;;;;;13.82;8.40;;;;;;;24.68;60.46;94870.03;5114520;27;20219;-76
2023/06/21 04:00:13;;;;;;;12.90;9.10;;;;;;;25.05;59.01;94866.47;5108181;28;20259;-75
2023/06/21 04:02:40;;;;;;;16.98;9.00;;;;;;;25.54;57.98;94866.25;5107981;28;20272;-76
2023/06/21 04:05:10;;;;;;;16.65;11.15;;;;;;;26.03;56.13;94867.50;5110231;27;20194;-78
2023/06/21 04:07:38;;;;;;;14.18;10.50;;;;;;;26.12;55.56;94864.97;5105640;28;20235;-76
2023/06/21 04:10:06;;;;;;;14.70;11.23;;;;;;;26.78;53.74;94870.59;5108506;28;20254;-76
2023/06/21 04:12:32;;;;;;;14.00;9.77;;;;;;;26.92;53.41;94882.66;5108662;28;20568;-76
2023/06/21 04:15:00;;;;;;;13.18;10.75;;;;;;;26.78;53.28;94876.16;5108200;28;20233;-76
2023/06/21 04:17:28;;;;;;;16.10;11.88;;;;;;;26.95;52.29;94881.81;5108404;28;20225;-76
2023/06/21 04:19:55;;;;;;;14.57;11.02;;;;;;;26.88;52.49;94883.50;5107582;28;20221;-76
2023/06/21 04:22:25;;;;;;;14.73;11.38;;;;;;;27.78;49.84;94888.03;5105907;28;20206;-77
2023/06/21 04:24:52;;;;;;;14.10;10.68;;;;;;;27.82;49.80;94883.19;5115189;28;20190;-77
2023/06/21 04:27:19;;;;;;;12.35;11.15;;;;;;;27.75;49.60;94880.56;5108506;28;20246;-77
2023/06/21 04:29:48;;;;;;;15.27;11.68;;;;;;;27.53;50.30;94878.22;5105674;28;20202;-76
2023/06/21 04:32:14;;;;;;;16.92;11.80;;;;;;;28.06;49.58;94892.19;5108843;28;20190;-77
2023/06/21 04:34:43;;;;;;;14.88;11.82;;;;;;;28.05;48.91;94891.41;5108084;28;20278;-77
2023/06/21 04:37:11;;;;;;;13.75;12.07;;;;;;;28.19;49.14;94891.09;5111346;28;20200;-77
2023/06/21 04:39:39;;;;;;;13.45;11.52;;;;;;;29.18;47.01;94878.56;5105757;28;20204;-77
2023/06/21 04:42:07;;;;;;;17.75;11.23;;;;;;;29.57;46.10;94886.63;5108003;28;20785;-77
2023/06/21 04:44:34;;;;;;;14.40;11.35;;;;;;;29.32;46.79;94886.53;5108679;28;20717;-76
2023/06/21 04:47:01;;;;;;;15.73;11.85;;;;;;;30.31;44.64;94886.34;5111631;28;20285;-76
2023/06/21 04:49:30;;;;;;;13.35;11.95;;;;;;;30.03;44.08;94893.63;5109196;28;20206;-75
2023/06/21 04:51:57;;;;;;;15.80;12.00;;;;;;;29.93;44.43;94896.72;5097025;28;20223;-76
2023/06/21 04:54:24;;;;;;;15.63;11.52;;;;;;;29.92;44.68;94895.16;5088779;28;20229;-75
2023/06/21 04:56:53;;;;;;;15.02;11.93;;;;;;;29.86;44.39;94885.75;5086648;28;20233;-77
2023/06/21 04:59:20;;;;;;;14.55;12.75;;;;;;;29.61;44.51;94898.47;5102959;28;20210;-77
2023/06/21 05:01:46;;;;;;;14.25;11.98;;;;;;;30.11;43.62;94883.00;5088936;28;20202;-77
2023/06/21 05:04:13;;;;;;;17.65;12.40;;;;;;;30.47;43.57;94885.44;5088333;28;20280;-79
2023/06/21 05:06:41;;;;;;;15.98;12.60;;;;;;;30.17;43.55;94889.59;5097667;28;20263;-78
2023/06/21 05:09:08;;;;;;;14.02;10.98;;;;;;;30.87;42.65;94885.69;5112806;28;20297;-78
2023/06/21 05:11:36;;;;;;;14.05;11.85;;;;;;;30.72;43.62;94890.22;5112163;28;20292;-77
2023/06/21 05:14:05;;;;;;;12.98;11.57;;;;;;;30.98;42.42;94886.09;5112703;28;20607;-77
2023/06/21 05:16:32;;;;;;;17.33;12.43;;;;;;;31.47;40.96;94885.53;5112659;28;20206;-80
2023/06/21 05:18:58;;;;;;;15.70;12.95;;;;;;;31.82;40.46;94874.25;5112653;28;20259;-79
2023/06/21 05:21:25;;;;;;;14.13;12.20;;;;;;;32.10;39.96;94884.34;5111761;28;20209;-81
2023/06/21 05:23:52;;;;;;;14.65;12.02;;;;;;;32.13;40.08;94878.59;5121255;27;20652;-80
2023/06/21 05:26:19;;;;;;;18.52;12.32;;;;;;;32.74;38.51;94873.34;5102133;27;20210;-80
2023/06/21 05:28:46;;;;;;;14.10;12.60;;;;;;;33.56;36.90;94884.59;5101002;28;20665;-81
2023/06/21 05:31:14;;;;;;;13.65;11.77;;;;;;;32.00;40.10;94891.16;5112240;28;20684;-80
2023/06/21 05:33:41;;;;;;;18.65;13.05;;;;;;;31.45;41.14;94885.22;5112632;28;20270;-83
2023/06/21 05:36:09;;;;;;;16.33;13.07;;;;;;;31.68;40.27;94887.59;5114505;27;20202;-82
2023/06/21 05:38:35;;;;;;;16.67;12.38;;;;;;;30.30;43.07;94884.78;5114993;27;20580;-82
2023/06/21 05:41:02;;;;;;;13.02;11.73;;;;;;;29.80;44.75;94893.13;5091864;28;20703;-83
2023/06/21 05:43:29;;;;;;;16.48;12.32;;;;;;;30.62;42.59;94889.31;5091871;28;20751;-82
2023/06/21 05:45:55;;;;;;;16.65;13.05;;;;;;;32.09;40.07;94882.78;5108387;28;20206;-80
2023/06/21 05:48:24;;;;;;;13.98;12.35;;;;;;;31.40;40.73;94883.81;5112363;28;20211;-80
2023/06/21 05:50:50;;;;;;;13.25;11.82;;;;;;;31.88;41.09;94884.41;5112188;28;20255;-83
2023/06/21 05:53:17;;;;;;;14.55;12.18;;;;;;;33.15;37.88;94881.19;5112626;28;20217;-82
2023/06/21 05:55:46;;;;;;;18.80;12.90;;;;;;;33.48;37.12;94883.38;5111554;28;20245;-82
2023/06/21 05:58:12;;;;;;;15.55;11.55;;;;;;;33.92;36.74;94877.34;5111824;28;20225;-83
2023/06/21 06:00:39;;;;;;;14.88;11.02;;;;;;;33.83;36.63;94875.34;5094070;28;20271;-80
2023/06/21 06:03:08;;;;;;;12.52;11.07;;;;;;;33.64;36.99;94874.56;5102101;28;20213;-79
2023/06/21 06:05:36;;;;;;;17.52;11.68;;;;;;;32.41;38.59;94876.69;5111470;28;20205;-78
2023/06/21 06:08:03;;;;;;;12.13;10.75;;;;;;;32.33;38.98;94875.44;5123369;27;20205;-78
2023/06/21 06:10:30;;;;;;;12.65;10.73;;;;;;;33.20;37.40;94874.16;5100479;27;20255;-78
2023/06/21 06:12:57;;;;;;;11.77;10.57;;;;;;;32.87;36.97;94868.38;5112069;28;20217;-78
2023/06/21 06:15:23;;;;;;;14.20;11.02;;;;;;;31.49;38.78;94871.88;5120582;27;20275;-77
2023/06/21 06:17:50;;;;;;;12.32;11.07;;;;;;;32.03;37.89;94867.81;5091085;28;20214;-77
2023/06/21 06:20:17;;;;;;;14.43;10.93;;;;;;;32.79;36.79;94862.31;5111150;28;20210;-75
2023/06/21 06:22:46;;;;;;;10.95;8.88;;;;;;;34.71;35.00;94863.88;5121775;27;20207;-78
2023/06/21 06:25:13;;;;;;;10.25;9.05;;;;;;;34.97;34.09;94859.34;5110282;28;20251;-77
2023/06/21 06:27:40;;;;;;;13.52;11.00;;;;;;;35.08;33.40;94861.59;5109868;28;20267;-77
2023/06/21 06:30:07;;;;;;;14.27;11.60;;;;;;;34.97;33.59;94858.56;5118282;27;20259;-78
2023/06/21 06:32:34;;;;;;;13.30;10.25;;;;;;;34.50;34.65;94860.84;5090660;28;20213;-77
2023/06/21 06:35:01;;;;;;;13.88;10.02;;;;;;;35.86;33.23;94866.66;5090174;28;20229;-78
2023/06/21 06:37:28;;;;;;;16.38;10.57;;;;;;;36.17;33.43;94859.72;5090610;28;20210;-78
2023/06/21 06:39:56;;;;;;;13.70;10.82;;;;;;;35.85;32.88;94859.47;5110927;28;20245;-77
2023/06/21 06:42:23;;;;;;;13.52;10.85;;;;;;;35.50;33.89;94867.03;5109243;28;20225;-78
2023/06/21 06:44:52;;;;;;;13.00;11.68;;;;;;;33.61;36.55;94869.94;5096641;28;20499;-77
2023/06/21 06:47:19;;;;;;;14.10;11.20;;;;;;;32.56;37.42;94873.28;5110873;28;20205;-77
2023/06/21 06:49:46;;;;;;;14.43;12.90;;;;;;;32.93;37.33;94860.91;5118947;27;20205;-78
2023/06/21 06:52:13;;;;;;;14.27;11.73;;;;;;;34.62;34.89;94861.88;5118182;27;20193;-78
2023/06/21 06:54:40;;;;;;;15.63;12.25;;;;;;;34.72;34.79;94862.59;5115590;27;20799;-78
2023/06/21 06:57:08;;;;;;;14.73;13.05;;;;;;;34.08;35.51;94868.53;5090429;28;20226;-78
2023/06/21 06:59:35;;;;;;;18.00;12.57;;;;;;;32.47;38.31;94869.22;5100300;28;20664;-78
2023/06/21 07:02:01;;;;;;;15.95;11.30;;;;;;;34.22;36.12;94865.03;5112370;27;20202;-77
2023/06/21 07:04:29;;;;;;;12.75;10.82;;;;;;;35.16;35.78;94859.94;5114295;27;20202;-78
2023/06/21 07:06:57;;;;;;;14.57;12.65;;;;;;;34.67;35.10;94863.25;5090370;28;20234;-78
2023/06/21 07:09:25;;;;;;;14.02;10.88;;;;;;;33.67;37.77;94868.03;5090370;28;20202;-77
2023/06/21 07:11:56;;;;;;;15.98;11.82;;;;;;;34.12;37.54;94863.53;5089399;28;20198;-78
2023/06/21 07:14:24;;;;;;;13.85;11.82;;;;;;;33.48;37.13;94860.91;5090402;28;20221;-78
2023/06/21 07:16:51;;;;;;;13.55;11.52;;;;;;;33.39;38.98;94863.69;5090124;28;20206;-78
2023/06/21 07:19:18;;;;;;;13.63;11.23;;;;;;;33.36;38.10;94861.81;5089808;28;20529;-77
2023/06/21 07:21:45;;;;;;;15.15;11.32;;;;;;;33.11;39.20;94849.66;5089810;28;20210;-78
2023/06/21 07:24:11;;;;;;;20.88;13.02;;;;;;;31.87;39.63;94851.22;5101206;28;20204;-76
2023/06/21 07:26:39;;;;;;;13.68;12.25;;;;;;;33.10;38.40;94845.28;5109977;28;20255;-77
2023/06/21 07:29:05;;;;;;;15.05;12.32;;;;;;;33.39;37.70;94846.84;5109678;28;20691;-77
2023/06/21 07:31:34;;;;;;;18.05;12.77;;;;;;;33.38;37.39;94839.66;5114608;27;20257;-77
2023/06/21 07:34:01;;;;;;;14.90;12.95;;;;;;;33.61;37.08;94841.81;5107933;27;20217;-76
2023/06/21 07:36:28;;;;;;;16.10;12.48;;;;;;;33.75;36.68;94841.16;5089434;28;20851;-76
2023/06/21 07:38:55;;;;;;;13.75;11.70;;;;;;;32.78;39.51;94838.28;5089934;28;20748;-76
2023/06/21 07:41:22;;;;;;;15.45;12.55;;;;;;;32.67;38.59;94837.13;5088610;28;20288;-78
2023/06/21 07:43:48;;;;;;;16.83;13.35;;;;;;;32.06;40.09;94834.03;5088138;28;20279;-77
2023/06/21 07:46:15;;;;;;;15.85;12.73;;;;;;;32.73;39.12;94835.31;5108999;28;20205;-79
2023/06/21 07:48:44;;;;;;;24.48;12.98;;;;;;;32.26;39.90;94830.84;5109443;28;20683;-78
2023/06/21 07:51:10;;;;;;;18.73;12.70;;;;;;;31.38;41.56;94841.47;5110244;28;20652;-78
2023/06/21 07:53:37;;;;;;;15.40;11.93;;;;;;;32.31;39.64;94827.44;5109965;28;20350;-78
2023/06/21 07:56:04;;;;;;;17.33;12.30;;;;;;;31.77;40.21;94840.00;5109588;28;20309;-78
2023/06/21 07:58:31;;;;;;;15.65;11.63;;;;;;;31.79;40.35;94842.34;5109241;28;20205;-78
2023/06/21 08:00:57;;;;;;;21.00;12.57;;;;;;;31.19;41.47;94836.19;5089102;28;20259;-78
2023/06/21 08:03:24;;;;;;;14.40;11.48;;;;;;;31.92;40.74;94836.63;5089690;28;20213;-78
2023/06/21 08:05:52;;;;;;;15.48;10.82;;;;;;;33.06;40.14;94836.25;5096299;28;20235;-75
2023/06/21 08:08:20;;;;;;;13.77;11.48;;;;;;;33.32;39.14;94831.13;5112181;27;20484;-76
2023/06/21 08:10:46;;;;;;;19.10;11.63;;;;;;;33.72;37.59;94830.84;5097763;28;20202;-78
2023/06/21 08:13:17;;;;;;;17.52;11.80;;;;;;;32.67;39.20;94831.53;5106209;27;20199;-78
2023/06/21 08:15:43;;;;;;;12.50;11.05;;;;;;;33.37;38.56;94832.50;5098638;28;20202;-78
2023/06/21 08:18:10;;;;;;;13.82;11.57;;;;;;;31.31;42.53;94832.53;5098274;28;20201;-78
2023/06/21 08:20:39;;;;;;;16.02;11.35;;;;;;;30.46;44.71;94827.94;5101597;28;20201;-76
2023/06/21 08:23:07;;;;;;;15.77;10.90;;;;;;;31.37;42.94;94819.50;5099869;28;20198;-77
2023/06/21 08:25:35;;;;;;;14.05;10.85;;;;;;;32.35;41.69;94822.47;5098005;28;20205;-77
2023/06/21 08:28:02;;;;;;;12.98;11.10;;;;;;;32.31;40.50;94816.22;5099393;28;20237;-78
2023/06/21 08:30:29;;;;;;;15.48;11.70;;;;;;;31.00;42.48;94827.66;5098947;28;20512;-77
2023/06/21 08:32:55;;;;;;;14.68;11.00;;;;;;;29.90;47.00;94827.78;5101241;28;20198;-78
2023/06/21 08:35:22;;;;;;;15.40;12.27;;;;;;;29.90;45.61;94836.16;5100645;28;20225;-77
2023/06/21 08:37:56;;;;;;;15.05;11.13;;;;;;;30.16;45.96;94832.13;5108198;28;20202;-78
2023/06/21 08:40:26;;;;;;;15.68;12.07;;;;;;;29.08;46.73;94837.81;5107590;28;20583;-78
2023/06/21 08:42:53;;;;;;;14.77;10.75;;;;;;;29.52;45.09;94839.69;5112604;28;20316;-77
2023/06/21 08:45:20;;;;;;;14.50;10.43;;;;;;;30.92;43.26;94820.72;5113091;28;20274;-76
2023/06/21 08:47:47;;;;;;;15.52;11.68;;;;;;;30.40;42.44;94836.09;5113948;27;20318;-76
2023/06/21 08:50:16;;;;;;;15.18;11.18;;;;;;;30.80;41.14;94818.00;5113410;28;20265;-76
2023/06/21 08:52:46;;;;;;;13.40;10.90;;;;;;;31.41;40.83;94811.78;5104069;27;20277;-76
2023/06/21 08:55:14;;;;;;;13.23;10.77;;;;;;;31.94;40.86;94811.72;5110449;28;20225;-77
2023/06/21 08:57:50;;;;;;;14.45;11.77;;;;;;;31.71;40.96;94811.00;5112058;27;20221;-76
2023/06/21 09:00:22;;;;;;;14.30;10.75;;;;;;;30.52;43.24;94819.75;5109884;28;20228;-75
2023/06/21 09:02:56;;;;;;;14.23;10.93;;;;;;;30.80;43.75;94818.00;5109933;28;20193;-77
2023/06/21 09:05:29;;;;;;;13.43;11.82;;;;;;;29.55;45.77;94821.28;5112533;28;20669;-77
2023/06/21 09:07:58;;;;;;;15.02;11.30;;;;;;;29.83;44.57;94819.59;5109843;28;20197;-76
2023/06/21 09:10:27;;;;;;;15.65;11.25;;;;;;;30.54;42.32;94812.50;5110783;28;20823;-76
2023/06/21 09:12:57;;;;;;;12.55;10.68;;;;;;;30.16;42.80;94809.78;5112651;28;20717;-76
2023/06/21 09:15:24;;;;;;;12.65;10.20;;;;;;;30.79;44.00;94806.03;5109990;28;20228;-76
2023/06/21 09:17:51;;;;;;;12.57;9.80;;;;;;;29.92;42.42;94805.75;5109810;28;20740;-77
2023/06/21 09:20:18;;;;;;;15.93;9.80;;;;;;;29.78;44.18;94811.81;5111474;28;20251;-76
2023/06/21 09:22:46;;;;;;;18.00;11.02;;;;;;;29.29;44.84;94812.06;5110407;28;20664;-76
2023/06/21 09:25:13;;;;;;;12.85;10.73;;;;;;;29.93;43.54;94810.13;5109599;28;20202;-77
2023/06/21 09:27:40;;;;;;;11.13;9.02;;;;;;;30.71;42.92;94804.72;5109470;28;20274;-76
2023/06/21 09:30:09;;;;;;;12.48;8.45;;;;;;;30.06;41.10;94808.13;5109085;28;20656;-76
2023/06/21 09:32:36;;;;;;;10.80;9.20;;;;;;;30.15;41.15;94805.41;5112138;28;20193;-80
2023/06/21 09:35:04;;;;;;;12.15;8.77;;;;;;;29.72;43.73;94811.56;5111398;28;20229;-75
2023/06/21 09:37:31;;;;;;;10.85;8.75;;;;;;;30.34;40.92;94809.94;5112311;28;20310;-77
2023/06/21 09:39:58;;;;;;;9.20;8.10;;;;;;;29.92;42.30;94809.34;5111167;28;20194;-75
2023/06/21 09:42:26;;;;;;;10.95;8.73;;;;;;;28.90;41.41;94819.56;5111724;28;20222;-75
2023/06/21 09:44:53;;;;;;;12.18;9.43;;;;;;;29.10;41.60;94818.63;5110609;28;20201;-78
2023/06/21 09:47:22;;;;;;;9.93;8.93;;;;;;;28.95;41.70;94819.03;5111899;28;20205;-77
2023/06/21 09:49:50;;;;;;;10.50;9.40;;;;;;;29.32;41.21;94813.97;5110580;28;20255;-77
2023/06/21 09:52:21;;;;;;;10.10;9.00;;;;;;;29.53;42.20;94795.81;5112185;28;20202;-75
2023/06/21 09:54:48;;;;;;;19.95;9.55;;;;;;;30.22;42.10;94796.00;5109590;28;20197;-77
2023/06/21 09:57:16;;;;;;;12.30;8.55;;;;;;;30.59;39.93;94802.75;5101793;28;20274;-76
2023/06/21 09:59:48;;;;;;;11.85;9.18;;;;;;;30.29;39.39;94810.53;5104784;27;20634;-76
2023/06/21 10:02:15;;;;;;;10.55;9.55;;;;;;;30.52;40.88;94805.75;5103435;28;20725;-76
2023/06/21 10:04:45;;;;;;;10.55;9.50;;;;;;;30.77;39.39;94802.88;5101539;28;20254;-77
2023/06/21 10:07:14;;;;;;;13.35;8.85;;;;;;;31.13;39.43;94807.25;5101091;28;20247;-77
2023/06/21 10:09:42;;;;;;;11.13;8.70;;;;;;;31.29;39.06;94807.03;5100476;28;20197;-77
2023/06/21 10:12:10;;;;;;;12.95;8.60;;;;;;;30.98;38.71;94804.94;5102069;27;20642;-77
2023/06/21 10:14:38;;;;;;;9.02;7.72;;;;;;;31.60;36.16;94807.03;5101484;28;20722;-77
2023/06/21 10:17:05;;;;;;;8.52;7.72;;;;;;;31.71;35.23;94801.81;5100979;28;20226;-77
2023/06/21 10:19:33;;;;;;;10.55;8.23;;;;;;;31.84;36.97;94798.94;5102665;28;20653;-77
2023/06/21 10:22:07;;;;;;;11.40;8.65;;;;;;;31.88;36.06;94807.94;5102052;27;20725;-76
2023/06/21 10:24:37;;;;;;;9.45;8.07;;;;;;;32.20;36.52;94801.84;5100920;28;20599;-78
2023/06/21 10:27:06;;;;;;;15.07;8.65;;;;;;;31.96;36.84;94796.00;5101463;28;20262;-77
2023/06/21 10:29:34;;;;;;;10.57;8.38;;;;;;;31.98;39.34;94792.75;5102686;28;20281;-76
2023/06/21 10:32:02;;;;;;;11.20;9.27;;;;;;;31.75;37.40;94799.66;5100141;28;20206;-78
2023/06/21 10:34:39;;;;;;;9.90;8.65;;;;;;;31.39;36.86;94800.25;5102121;27;20198;-77
2023/06/21 10:37:15;;;;;;;10.20;8.80;;;;;;;31.56;37.95;94790.38;5099672;28;20214;-77
2023/06/21 10:39:42;;;;;;;10.05;8.18;;;;;;;31.32;36.54;94798.47;5101235;28;20585;-77
2023/06/21 10:42:10;;;;;;;9.90;8.40;;;;;;;31.45;38.40;94789.97;5104401;27;20636;-77
2023/06/21 10:44:40;;;;;;;8.80;7.78;;;;;;;30.57;38.16;94805.22;5101237;28;20202;-75
2023/06/21 10:47:07;;;;;;;9.82;8.05;;;;;;;30.35;40.04;94810.72;5111384;28;20201;-77
2023/06/21 10:49:34;;;;;;;10.63;7.60;;;;;;;29.78;39.80;94800.63;5096730;28;20622;-78
2023/06/21 10:52:03;;;;;;;10.75;7.88;;;;;;;29.60;40.39;94801.97;5110873;28;20692;-76
2023/06/21 10:54:33;;;;;;;9.98;8.00;;;;;;;29.85;39.30;94812.34;5097076;28;20202;-78
2023/06/21 10:57:00;;;;;;;10.68;7.82;;;;;;;30.43;39.72;94805.69;5104039;28;20237;-77
2023/06/21 10:59:27;;;;;;;9.05;8.15;;;;;;;31.16;38.00;94806.34;5110852;28;20607;-77
2023/06/21 11:01:54;;;;;;;9.10;7.75;;;;;;;31.62;36.43;94794.13;5110239;28;20729;-78
2023/06/21 11:04:21;;;;;;;8.30;7.32;;;;;;;32.05;36.37;94796.03;5097342;28;20202;-78
2023/06/21 11:06:48;;;;;;;9.65;7.43;;;;;;;31.52;34.91;94798.13;5096804;28;20247;-75
2023/06/21 11:09:18;;;;;;;9.68;7.13;;;;;;;30.54;36.71;94794.94;5111195;28;20197;-77
2023/06/21 11:11:52;;;;;;;10.27;7.28;;;;;;;30.45;37.04;94797.63;5096626;27;20198;-77
2023/06/21 11:14:23;;;;;;;9.05;8.00;;;;;;;30.57;38.69;94802.44;5110701;28;20186;-78
2023/06/21 11:17:06;;;;;;;8.88;7.97;;;;;;;30.59;37.61;94799.97;5094058;28;20283;-78
2023/06/21 11:19:32;;;;;;;9.30;7.43;;;;;;;30.79;36.46;94789.22;5102156;28;20221;-75
2023/06/21 11:22:15;;;;;;;8.82;7.97;;;;;;;30.88;36.31;94780.94;5096689;28;20644;-77
2023/06/21 11:24:50;;;;;;;8.55;7.75;;;;;;;31.22;37.73;94782.09;5109516;28;20206;-76